Time;durP1;ratioP1;P1;durP2;ratioP2;P2;SDS_P1;SDS_P2;PMS_P1;PMS_P2;Temp;Humidity;BMP_temperature;BMP_pressure;BME280_temperature;BME280_humidity;BME280_pressure;Samples;Min_cycle;Max_cycle;Signal;HPM_P1;HPM_P2
2023/04/20 00:01:57;;;;;;;6.50;3.08;;;8.00;99.90;;;;;;4980850;28;21960;-60
2023/04/20 00:04:23;;;;;;;6.22;2.85;;;8.00;99.90;;;;;;4997824;28;20041;-60
2023/04/20 00:06:51;;;;;;;6.43;3.17;;;8.00;99.90;;;;;;4987494;28;20045;-60
2023/04/20 00:09:17;;;;;;;7.72;3.15;;;8.00;99.90;;;;;;5016227;28;20041;-60
2023/04/20 00:11:43;;;;;;;5.47;2.88;;;8.00;99.90;;;;;;5002897;28;20797;-61
2023/04/20 00:14:09;;;;;;;5.55;2.10;;;8.00;99.90;;;;;;4983896;28;20060;-60
2023/04/20 00:16:35;;;;;;;5.22;2.53;;;7.90;99.90;;;;;;4989457;28;20548;-61
2023/04/20 00:19:01;;;;;;;14.80;3.28;;;8.00;99.90;;;;;;5011544;28;20032;-61
2023/04/20 00:21:26;;;;;;;7.03;2.47;;;7.90;99.90;;;;;;5011232;28;20037;-60
2023/04/20 00:23:52;;;;;;;7.22;2.28;;;8.00;99.90;;;;;;5005007;28;20033;-60
2023/04/20 00:26:21;;;;;;;5.57;2.05;;;8.00;99.90;;;;;;5009909;28;20370;-60
2023/04/20 00:28:49;;;;;;;5.97;2.45;;;8.00;99.90;;;;;;5005613;28;20034;-60
2023/04/20 00:31:15;;;;;;;7.47;2.53;;;8.00;99.90;;;;;;5007882;28;20784;-61
2023/04/20 00:33:41;;;;;;;7.95;2.40;;;8.00;99.90;;;;;;5012993;28;20116;-61
2023/04/20 00:36:07;;;;;;;5.22;2.47;;;8.00;99.90;;;;;;5009694;28;20038;-61
2023/04/20 00:38:33;;;;;;;5.35;2.05;;;8.00;99.90;;;;;;5009090;28;20045;-59
2023/04/20 00:40:58;;;;;;;6.18;2.42;;;8.00;99.90;;;;;;4990349;28;20042;-61
2023/04/20 00:43:24;;;;;;;4.15;2.20;;;8.00;99.90;;;;;;5008858;28;20044;-60
2023/04/20 00:45:51;;;;;;;4.75;1.85;;;8.10;99.90;;;;;;4987888;28;20571;-61
2023/04/20 00:48:17;;;;;;;6.38;2.22;;;8.10;99.90;;;;;;5004071;28;20111;-61
2023/04/20 00:50:46;;;;;;;5.97;2.65;;;8.10;99.90;;;;;;4999156;28;20116;-61
2023/04/20 00:53:12;;;;;;;5.07;2.33;;;8.10;99.90;;;;;;4999832;28;20543;-60
2023/04/20 00:55:44;;;;;;;7.57;2.10;;;8.10;99.90;;;;;;4998764;28;20044;-61
2023/04/20 00:58:11;;;;;;;5.70;2.47;;;8.10;99.90;;;;;;4998260;28;20179;-61
2023/04/20 01:00:37;;;;;;;6.70;2.20;;;8.00;99.90;;;;;;4999543;28;20050;-60
2023/04/20 01:03:04;;;;;;;9.20;2.55;;;8.00;99.90;;;;;;4996108;28;20056;-59
2023/04/20 01:05:30;;;;;;;4.38;1.70;;;7.90;99.90;;;;;;4997854;28;20136;-61
2023/04/20 01:07:59;;;;;;;4.20;1.90;;;8.00;99.90;;;;;;4984405;28;20124;-62
2023/04/20 01:10:25;;;;;;;6.88;1.63;;;7.90;99.90;;;;;;4998039;28;20045;-62
2023/04/20 01:12:54;;;;;;;6.70;2.92;;;7.90;99.90;;;;;;4982126;28;20069;-61
2023/04/20 01:15:22;;;;;;;5.38;2.05;;;7.90;99.90;;;;;;4997521;28;20050;-62
2023/04/20 01:17:48;;;;;;;4.38;1.75;;;7.90;99.90;;;;;;4998811;28;20044;-61
2023/04/20 01:20:14;;;;;;;6.32;2.33;;;7.90;99.90;;;;;;4998834;28;20038;-62
2023/04/20 01:22:48;;;;;;;6.53;2.13;;;8.00;99.90;;;;;;5000044;28;20037;-62
2023/04/20 01:25:15;;;;;;;5.88;2.10;;;8.00;99.90;;;;;;4995777;28;20457;-61
2023/04/20 01:27:43;;;;;;;6.88;1.75;;;8.00;99.90;;;;;;4996491;28;20125;-61
2023/04/20 01:30:10;;;;;;;6.88;2.00;;;8.00;99.90;;;;;;4997605;28;20148;-61
2023/04/20 01:32:36;;;;;;;4.50;1.60;;;8.10;99.90;;;;;;4997735;28;20045;-60
2023/04/20 01:35:02;;;;;;;4.78;1.98;;;8.10;99.90;;;;;;4998136;28;20054;-61
2023/04/20 01:37:28;;;;;;;6.18;1.85;;;8.10;99.90;;;;;;4984548;28;20030;-61
2023/04/20 01:39:54;;;;;;;6.45;1.63;;;8.20;99.90;;;;;;4997829;28;20036;-61
2023/04/20 01:42:20;;;;;;;7.28;1.83;;;8.20;99.90;;;;;;5000197;28;20038;-60
2023/04/20 01:44:46;;;;;;;7.18;1.70;;;8.20;99.90;;;;;;4999820;28;20030;-60
2023/04/20 01:47:12;;;;;;;9.73;2.88;;;8.20;99.90;;;;;;4997522;28;20918;-60
2023/04/20 01:49:38;;;;;;;8.40;2.78;;;8.20;99.90;;;;;;4997517;28;20062;-61
2023/04/20 01:52:04;;;;;;;5.97;1.55;;;8.20;99.90;;;;;;5000036;28;20034;-61
2023/04/20 01:54:29;;;;;;;7.43;1.80;;;8.20;99.90;;;;;;4998734;28;20030;-61
2023/04/20 01:56:56;;;;;;;3.88;1.90;;;8.20;99.90;;;;;;4997897;28;20057;-61
2023/04/20 01:59:22;;;;;;;6.93;1.80;;;8.20;99.90;;;;;;4999560;28;20041;-61
2023/04/20 02:01:48;;;;;;;5.78;2.28;;;8.20;99.90;;;;;;4998592;28;20052;-61
2023/04/20 02:04:14;;;;;;;4.85;1.92;;;8.20;99.90;;;;;;4996708;28;20038;-61
2023/04/20 02:06:40;;;;;;;9.00;2.20;;;8.20;99.90;;;;;;4998720;28;20054;-61
2023/04/20 02:09:07;;;;;;;14.25;2.08;;;8.20;99.90;;;;;;4998228;28;20451;-61
2023/04/20 02:11:33;;;;;;;7.55;2.10;;;8.20;99.90;;;;;;4994847;28;20092;-61
2023/04/20 02:13:59;;;;;;;8.40;2.10;;;8.20;99.90;;;;;;4999085;28;20187;-61
2023/04/20 02:16:29;;;;;;;7.63;1.83;;;8.20;99.90;;;;;;4986130;28;20508;-61
2023/04/20 02:18:55;;;;;;;6.38;1.73;;;8.10;99.90;;;;;;5004566;28;20042;-60
2023/04/20 02:21:21;;;;;;;4.72;2.40;;;8.10;99.90;;;;;;5007876;28;20152;-61
2023/04/20 02:23:47;;;;;;;6.38;2.38;;;8.10;99.90;;;;;;4991992;28;20135;-60
2023/04/20 02:26:13;;;;;;;4.60;1.90;;;8.10;99.90;;;;;;5008121;28;20041;-60
2023/04/20 02:28:39;;;;;;;4.95;1.60;;;8.10;99.90;;;;;;4989571;28;20053;-61
2023/04/20 02:31:05;;;;;;;8.02;1.75;;;8.10;99.90;;;;;;5008783;28;20042;-61
2023/04/20 02:33:31;;;;;;;3.80;1.80;;;8.10;99.90;;;;;;4993083;28;20053;-61
2023/04/20 02:35:56;;;;;;;5.00;1.88;;;8.10;99.90;;;;;;5013154;28;20036;-61
2023/04/20 02:38:22;;;;;;;7.45;1.70;;;8.00;99.90;;;;;;5004330;28;20072;-61
2023/04/20 02:40:48;;;;;;;7.72;2.22;;;8.00;99.90;;;;;;5009182;28;20093;-61
2023/04/20 02:43:14;;;;;;;4.90;1.73;;;8.10;99.90;;;;;;5005634;28;20078;-61
2023/04/20 02:45:40;;;;;;;4.18;1.85;;;8.00;99.90;;;;;;5005463;28;20046;-61
2023/04/20 02:48:05;;;;;;;5.07;1.83;;;8.10;99.90;;;;;;4998548;28;20061;-61
2023/04/20 02:50:31;;;;;;;8.18;1.92;;;8.10;99.90;;;;;;4981661;28;20045;-61
2023/04/20 02:52:57;;;;;;;7.22;1.73;;;8.10;99.90;;;;;;4998127;28;20037;-61
2023/04/20 02:55:23;;;;;;;6.80;2.63;;;8.10;99.90;;;;;;4997862;28;20076;-60
2023/04/20 02:57:48;;;;;;;6.85;1.80;;;8.10;99.90;;;;;;4997390;28;20582;-61
2023/04/20 03:00:14;;;;;;;5.63;2.00;;;8.10;99.90;;;;;;4993791;28;20038;-61
2023/04/20 03:02:40;;;;;;;8.23;2.10;;;8.10;99.90;;;;;;4998151;28;20916;-60
2023/04/20 03:05:06;;;;;;;8.93;2.25;;;8.20;99.90;;;;;;4999114;28;20045;-61
2023/04/20 03:07:32;;;;;;;6.80;2.25;;;8.10;99.90;;;;;;4999117;28;20052;-61
2023/04/20 03:09:58;;;;;;;8.02;2.10;;;8.20;99.90;;;;;;4999164;28;20041;-61
2023/04/20 03:12:25;;;;;;;8.82;3.05;;;8.20;99.90;;;;;;5001991;28;20077;-61
2023/04/20 03:14:50;;;;;;;4.63;1.70;;;8.20;99.90;;;;;;5013166;28;20064;-61
2023/04/20 03:17:16;;;;;;;4.50;2.00;;;8.10;99.90;;;;;;5000997;28;20037;-61
2023/04/20 03:19:42;;;;;;;8.13;2.40;;;8.20;99.90;;;;;;5004823;28;20105;-61
2023/04/20 03:22:08;;;;;;;6.93;2.50;;;8.20;99.90;;;;;;5006187;28;20124;-61
2023/04/20 03:24:33;;;;;;;8.55;2.08;;;8.20;99.90;;;;;;5002798;28;21823;-61
2023/04/20 03:26:59;;;;;;;7.90;2.42;;;8.30;99.90;;;;;;5008756;28;20048;-60
2023/04/20 03:29:25;;;;;;;11.68;2.35;;;8.30;99.90;;;;;;4975707;28;20053;-60
2023/04/20 03:31:51;;;;;;;5.13;1.75;;;8.20;99.90;;;;;;5008665;28;20029;-61
2023/04/20 03:34:16;;;;;;;7.75;2.50;;;8.30;99.90;;;;;;4988743;28;20490;-61
2023/04/20 03:36:42;;;;;;;6.53;2.40;;;8.30;99.90;;;;;;5010497;28;20041;-61
2023/04/20 03:39:08;;;;;;;8.57;2.33;;;8.30;99.90;;;;;;5011481;28;20070;-61
2023/04/20 03:41:34;;;;;;;7.75;3.25;;;8.30;99.90;;;;;;5011434;28;20076;-61
2023/04/20 03:44:00;;;;;;;10.80;3.22;;;8.30;99.90;;;;;;5009515;28;20065;-61
2023/04/20 03:46:26;;;;;;;9.95;2.70;;;8.30;99.90;;;;;;5010854;28;20041;-61
2023/04/20 03:48:51;;;;;;;9.02;2.28;;;8.30;99.90;;;;;;4987384;28;20180;-61
2023/04/20 03:51:17;;;;;;;8.30;2.42;;;8.30;99.90;;;;;;5006034;28;20660;-61
2023/04/20 03:53:43;;;;;;;7.05;2.80;;;8.30;99.90;;;;;;5005770;28;20045;-60
2023/04/20 03:56:11;;;;;;;6.68;2.45;;;8.20;99.90;;;;;;5000940;28;20046;-60
2023/04/20 03:58:37;;;;;;;11.63;2.53;;;8.20;99.90;;;;;;5013116;28;20034;-61
2023/04/20 04:01:06;;;;;;;6.82;2.15;;;8.20;99.90;;;;;;5008495;28;20038;-60
2023/04/20 04:03:33;;;;;;;7.13;2.30;;;8.30;99.90;;;;;;5010806;28;20049;-61
2023/04/20 04:05:59;;;;;;;6.00;1.85;;;8.30;99.90;;;;;;5007788;28;20064;-61
2023/04/20 04:08:25;;;;;;;4.57;2.45;;;8.30;99.90;;;;;;4995221;28;20037;-60
2023/04/20 04:10:51;;;;;;;4.32;2.15;;;8.30;99.90;;;;;;4988909;28;20037;-61
2023/04/20 04:13:17;;;;;;;7.55;2.28;;;8.30;99.90;;;;;;5011103;28;20037;-61
2023/04/20 04:15:43;;;;;;;5.57;2.10;;;8.40;99.90;;;;;;5008281;28;20045;-60
2023/04/20 04:18:08;;;;;;;5.75;2.20;;;8.40;99.90;;;;;;5009744;28;20497;-60
2023/04/20 04:20:34;;;;;;;4.82;1.80;;;8.40;99.90;;;;;;5003528;28;20103;-61
2023/04/20 04:23:00;;;;;;;6.43;2.53;;;8.40;99.90;;;;;;5009275;28;20029;-61
2023/04/20 04:25:26;;;;;;;11.60;2.35;;;8.40;99.90;;;;;;5010029;28;20052;-60
2023/04/20 04:27:52;;;;;;;6.22;2.40;;;8.40;99.90;;;;;;5012794;28;20040;-61
2023/04/20 04:30:18;;;;;;;9.57;2.10;;;8.40;99.90;;;;;;5007384;28;20034;-61
2023/04/20 04:32:45;;;;;;;6.63;3.03;;;8.40;99.90;;;;;;5011139;28;20034;-61
2023/04/20 04:35:12;;;;;;;7.95;2.10;;;8.40;99.90;;;;;;4993288;28;20042;-60
2023/04/20 04:37:38;;;;;;;5.18;2.22;;;8.40;99.90;;;;;;5004217;28;20405;-60
2023/04/20 04:40:06;;;;;;;12.35;2.53;;;8.50;99.90;;;;;;5006138;28;20034;-61
2023/04/20 04:42:33;;;;;;;6.93;2.08;;;8.40;99.90;;;;;;5008033;28;20038;-60
2023/04/20 04:45:01;;;;;;;6.45;2.20;;;8.40;99.90;;;;;;5009392;28;20068;-61
2023/04/20 04:47:28;;;;;;;7.32;2.35;;;8.40;99.90;;;;;;5008737;28;20576;-61
2023/04/20 04:49:54;;;;;;;6.65;2.22;;;8.40;99.90;;;;;;5010638;28;20054;-61
2023/04/20 04:52:23;;;;;;;7.50;2.10;;;8.30;99.90;;;;;;4988924;28;20056;-59
2023/04/20 04:54:49;;;;;;;6.63;2.17;;;8.30;99.90;;;;;;5004220;28;20120;-60
2023/04/20 04:57:15;;;;;;;8.70;2.47;;;8.30;99.90;;;;;;5003353;28;20569;-60
2023/04/20 04:59:41;;;;;;;10.65;2.70;;;8.30;99.90;;;;;;5009158;28;20124;-60
2023/04/20 05:02:07;;;;;;;7.07;2.10;;;8.30;99.90;;;;;;5008500;28;20052;-60
2023/04/20 05:04:33;;;;;;;7.60;2.05;;;8.30;99.90;;;;;;5012032;28;20037;-60
2023/04/20 05:06:58;;;;;;;9.88;2.35;;;8.30;99.90;;;;;;5008074;28;20037;-60
2023/04/20 05:09:24;;;;;;;9.70;2.55;;;8.30;99.90;;;;;;5008075;28;20409;-61
2023/04/20 05:11:50;;;;;;;6.25;2.20;;;8.40;99.90;;;;;;5009766;28;20041;-59
2023/04/20 05:14:15;;;;;;;7.03;1.98;;;8.40;99.90;;;;;;5005327;28;20041;-61
2023/04/20 05:16:41;;;;;;;8.35;1.95;;;8.40;99.90;;;;;;5009075;28;20129;-61
2023/04/20 05:19:07;;;;;;;8.15;2.13;;;8.40;99.90;;;;;;5011723;28;20033;-60
2023/04/20 05:21:33;;;;;;;6.43;2.17;;;8.40;99.90;;;;;;5009590;28;20038;-60
2023/04/20 05:23:58;;;;;;;5.00;2.08;;;8.40;99.90;;;;;;5009653;28;20038;-61
2023/04/20 05:26:24;;;;;;;9.27;3.22;;;8.50;99.90;;;;;;5009877;28;20117;-61
2023/04/20 05:28:50;;;;;;;7.72;2.55;;;8.50;99.90;;;;;;5000059;28;20593;-63
2023/04/20 05:31:19;;;;;;;8.25;2.20;;;8.50;99.90;;;;;;4999788;28;20570;-62
2023/04/20 05:33:45;;;;;;;9.82;2.50;;;8.50;99.90;;;;;;5007934;28;20041;-62
2023/04/20 05:36:10;;;;;;;5.65;2.45;;;8.50;99.90;;;;;;5008696;28;20038;-61
2023/04/20 05:38:36;;;;;;;7.03;2.00;;;8.50;99.90;;;;;;5010234;28;20078;-61
2023/04/20 05:41:03;;;;;;;9.43;3.63;;;8.50;99.90;;;;;;5008226;28;20034;-61
2023/04/20 05:43:28;;;;;;;6.90;2.88;;;8.50;99.90;;;;;;4991403;28;20033;-62
2023/04/20 05:45:54;;;;;;;7.18;2.30;;;8.60;99.90;;;;;;5003831;28;20459;-62
2023/04/20 05:48:20;;;;;;;3.65;1.90;;;8.60;99.80;;;;;;4990171;28;20050;-63
2023/04/20 05:50:46;;;;;;;6.75;2.10;;;8.60;99.80;;;;;;5005174;28;20536;-62
2023/04/20 05:53:12;;;;;;;5.13;2.90;;;8.60;99.90;;;;;;5006300;28;20084;-62
2023/04/20 05:55:38;;;;;;;7.07;2.10;;;8.60;99.90;;;;;;5011894;28;20045;-61
2023/04/20 05:58:03;;;;;;;7.68;2.03;;;8.60;99.90;;;;;;5004712;28;20048;-61
2023/04/20 06:00:29;;;;;;;4.40;1.92;;;8.60;99.90;;;;;;5007274;28;20037;-62
2023/04/20 06:02:55;;;;;;;6.95;2.45;;;8.50;99.90;;;;;;5004774;28;20049;-61
2023/04/20 06:05:21;;;;;;;8.60;2.10;;;8.50;99.90;;;;;;5002892;28;20052;-62
2023/04/20 06:07:46;;;;;;;8.55;2.28;;;8.50;99.90;;;;;;5002882;28;20053;-61
2023/04/20 06:10:12;;;;;;;6.07;1.85;;;8.50;99.90;;;;;;5002575;28;20046;-61
2023/04/20 06:12:38;;;;;;;4.88;2.15;;;8.50;99.90;;;;;;4975114;28;20041;-61
2023/04/20 06:15:07;;;;;;;7.50;2.50;;;8.50;99.90;;;;;;4988097;28;20591;-61
2023/04/20 06:17:39;;;;;;;11.80;2.88;;;8.40;99.90;;;;;;5006447;28;20037;-60
2023/04/20 06:20:09;;;;;;;7.20;2.20;;;8.40;99.90;;;;;;4998506;28;20074;-61
2023/04/20 06:22:36;;;;;;;6.78;3.03;;;8.40;99.90;;;;;;5001921;28;20052;-61
2023/04/20 06:25:02;;;;;;;4.53;2.30;;;8.30;99.90;;;;;;5001386;28;20046;-62
2023/04/20 06:27:28;;;;;;;5.82;2.42;;;8.30;99.90;;;;;;5007587;28;20037;-62
2023/04/20 06:29:54;;;;;;;11.73;2.65;;;8.40;99.90;;;;;;5006477;28;20560;-62
2023/04/20 06:32:19;;;;;;;9.93;2.08;;;8.60;99.90;;;;;;4999913;28;20058;-61
2023/04/20 06:34:46;;;;;;;7.75;2.40;;;8.50;99.90;;;;;;5001888;28;20041;-61
2023/04/20 06:37:12;;;;;;;6.60;2.45;;;8.30;99.90;;;;;;5002876;28;20042;-61
2023/04/20 06:39:38;;;;;;;7.47;2.10;;;8.20;99.90;;;;;;5004938;28;20096;-62
2023/04/20 06:42:04;;;;;;;6.28;2.40;;;8.10;99.90;;;;;;5005361;28;20045;-62
2023/04/20 06:44:29;;;;;;;7.38;2.83;;;8.10;99.90;;;;;;5008755;28;21162;-62
2023/04/20 06:46:58;;;;;;;5.47;2.40;;;8.00;99.90;;;;;;5009695;28;20096;-62
2023/04/20 06:49:24;;;;;;;3.83;2.10;;;8.00;99.90;;;;;;5007208;28;20048;-62
2023/04/20 06:51:49;;;;;;;6.35;2.10;;;8.00;99.90;;;;;;5009006;28;20501;-63
2023/04/20 06:54:15;;;;;;;7.45;2.30;;;8.00;99.90;;;;;;5008449;28;20041;-62
2023/04/20 06:56:41;;;;;;;4.70;1.80;;;7.90;99.90;;;;;;5008031;28;20053;-62
2023/04/20 06:59:06;;;;;;;4.75;1.83;;;7.90;99.90;;;;;;4999979;28;20616;-62
2023/04/20 07:01:32;;;;;;;5.80;2.38;;;7.90;99.90;;;;;;5004600;28;20038;-63
2023/04/20 07:03:58;;;;;;;7.55;2.20;;;8.00;99.90;;;;;;5005637;28;20120;-61
2023/04/20 07:06:24;;;;;;;7.10;2.55;;;8.00;99.90;;;;;;5008807;28;20046;-61
2023/04/20 07:08:50;;;;;;;6.50;2.42;;;7.90;99.90;;;;;;5006842;28;20497;-61
2023/04/20 07:11:16;;;;;;;5.93;2.15;;;7.90;99.90;;;;;;5008052;28;20677;-61
2023/04/20 07:13:41;;;;;;;6.75;2.53;;;7.90;99.90;;;;;;5006137;28;20052;-61
2023/04/20 07:16:08;;;;;;;6.88;2.90;;;7.80;99.90;;;;;;5002356;28;20046;-63
2023/04/20 07:18:35;;;;;;;8.35;3.10;;;7.80;99.90;;;;;;5005853;28;20038;-64
2023/04/20 07:21:01;;;;;;;6.30;2.65;;;7.70;99.90;;;;;;5003329;28;20041;-63
2023/04/20 07:23:26;;;;;;;5.93;2.70;;;7.60;99.90;;;;;;4988070;28;20081;-64
2023/04/20 07:25:52;;;;;;;8.07;3.22;;;7.40;99.90;;;;;;5003247;28;20049;-63
2023/04/20 07:28:18;;;;;;;6.47;2.90;;;7.40;99.90;;;;;;4989080;28;20046;-63
2023/04/20 07:30:46;;;;;;;8.85;2.85;;;7.40;99.90;;;;;;5004250;28;20053;-63
2023/04/20 07:33:12;;;;;;;6.10;3.22;;;7.30;99.90;;;;;;5010034;28;20673;-63
2023/04/20 07:35:38;;;;;;;8.75;3.28;;;7.40;99.90;;;;;;5009888;28;20044;-62
2023/04/20 07:38:03;;;;;;;13.07;5.18;;;7.40;99.90;;;;;;5010012;28;20042;-63
2023/04/20 07:40:29;;;;;;;5.88;2.97;;;7.30;99.90;;;;;;5009363;28;20127;-64
2023/04/20 07:42:55;;;;;;;7.03;3.08;;;7.30;99.90;;;;;;5009848;28;20033;-63
2023/04/20 07:45:21;;;;;;;9.48;3.25;;;7.30;99.90;;;;;;5009097;28;20049;-63
2023/04/20 07:47:50;;;;;;;5.88;2.97;;;7.30;99.90;;;;;;5010880;28;20065;-63
2023/04/20 07:50:19;;;;;;;7.22;3.40;;;7.30;99.90;;;;;;5009598;28;20547;-63
2023/04/20 07:52:45;;;;;;;8.68;3.40;;;7.30;99.90;;;;;;5005917;28;20041;-63
2023/04/20 07:55:12;;;;;;;8.18;3.20;;;7.30;99.90;;;;;;5003652;28;20521;-63
2023/04/20 07:57:41;;;;;;;9.07;3.53;;;7.40;99.90;;;;;;5006326;28;20050;-63
2023/04/20 08:00:08;;;;;;;8.57;3.13;;;7.30;99.90;;;;;;4988418;28;20049;-63
2023/04/20 08:02:34;;;;;;;6.45;3.55;;;7.30;99.90;;;;;;5003886;28;20042;-63
2023/04/20 08:05:03;;;;;;;8.43;3.65;;;7.30;99.90;;;;;;5006753;28;20496;-64
2023/04/20 08:07:29;;;;;;;8.63;3.45;;;7.30;99.90;;;;;;5000360;28;20121;-63
2023/04/20 08:10:00;;;;;;;9.20;3.72;;;7.30;99.90;;;;;;5006789;28;20761;-64
2023/04/20 08:12:25;;;;;;;7.95;3.50;;;7.20;99.90;;;;;;5001046;28;20042;-63
2023/04/20 08:14:51;;;;;;;6.63;3.40;;;7.20;99.90;;;;;;5002689;28;20099;-63
2023/04/20 08:17:17;;;;;;;7.05;3.22;;;7.20;99.90;;;;;;5008864;28;20046;-62
2023/04/20 08:19:43;;;;;;;7.53;3.40;;;7.20;99.90;;;;;;5002504;28;20485;-62
2023/04/20 08:22:11;;;;;;;7.00;3.40;;;7.30;99.90;;;;;;5023414;28;20520;-63
2023/04/20 08:24:37;;;;;;;7.57;3.45;;;7.40;99.90;;;;;;5008028;28;20515;-63
2023/04/20 08:27:03;;;;;;;9.05;3.40;;;7.50;99.90;;;;;;4978426;28;20042;-63
2023/04/20 08:29:28;;;;;;;9.65;3.40;;;7.50;99.90;;;;;;5016892;28;20378;-64
2023/04/20 08:31:54;;;;;;;7.85;3.33;;;7.50;99.90;;;;;;4999639;28;20037;-62
2023/04/20 08:34:20;;;;;;;7.65;3.40;;;7.50;99.90;;;;;;4999147;28;20045;-62
2023/04/20 08:36:49;;;;;;;7.43;3.40;;;7.60;99.90;;;;;;4977042;28;20046;-63
2023/04/20 08:39:19;;;;;;;7.25;3.95;;;7.60;99.90;;;;;;4996210;28;20038;-63
2023/04/20 08:41:45;;;;;;;7.45;3.50;;;7.60;99.90;;;;;;5005525;28;20117;-63
2023/04/20 08:44:11;;;;;;;8.32;3.20;;;7.70;99.90;;;;;;5007411;28;20104;-62
2023/04/20 08:46:39;;;;;;;9.13;3.42;;;7.80;99.90;;;;;;5004228;28;20522;-62
2023/04/20 08:49:05;;;;;;;5.57;3.20;;;7.80;99.90;;;;;;5000621;28;20050;-62
2023/04/20 08:51:31;;;;;;;9.45;3.60;;;7.90;99.90;;;;;;4999067;28;20046;-63
2023/04/20 08:54:06;;;;;;;12.05;3.67;;;8.00;99.90;;;;;;4998576;28;20088;-63
2023/04/20 08:56:44;;;;;;;5.70;3.25;;;8.00;99.90;;;;;;4998759;28;20045;-63
2023/04/20 08:59:11;;;;;;;8.43;3.50;;;8.20;99.90;;;;;;5001030;28;20045;-62
2023/04/20 09:01:38;;;;;;;6.88;4.35;;;8.10;99.90;;;;;;4978215;28;20744;-63
2023/04/20 09:04:25;;;;;;;7.45;3.15;;;8.10;99.90;;;;;;4987086;28;20057;-63
2023/04/20 09:06:53;;;;;;;6.93;3.05;;;8.00;99.90;;;;;;4998335;28;20742;-62
2023/04/20 09:09:19;;;;;;;9.35;3.67;;;8.00;99.90;;;;;;4999178;28;20045;-63
2023/04/20 09:11:46;;;;;;;8.27;3.60;;;7.90;99.90;;;;;;4998136;28;20370;-62
2023/04/20 09:14:15;;;;;;;6.93;3.20;;;8.00;99.90;;;;;;4995847;28;20049;-64
2023/04/20 09:16:52;;;;;;;8.15;3.30;;;8.00;99.90;;;;;;4982043;28;20065;-64
2023/04/20 09:19:25;;;;;;;8.98;3.63;;;7.90;99.90;;;;;;4997758;28;20034;-64
2023/04/20 09:21:53;;;;;;;6.80;3.43;;;7.90;99.90;;;;;;5012011;28;20049;-63
2023/04/20 09:24:34;;;;;;;7.93;3.80;;;7.90;99.90;;;;;;4994770;28;20104;-63
2023/04/20 09:27:01;;;;;;;9.02;3.50;;;7.80;99.90;;;;;;4996417;28;20050;-63
2023/04/20 09:29:27;;;;;;;7.20;3.60;;;7.80;99.90;;;;;;4998153;28;20049;-63
2023/04/20 09:31:53;;;;;;;7.93;3.75;;;8.00;99.90;;;;;;5011261;28;20157;-64
2023/04/20 09:34:20;;;;;;;7.65;3.83;;;8.10;99.90;;;;;;4996968;28;20065;-63
2023/04/20 09:36:50;;;;;;;10.27;4.28;;;8.10;99.90;;;;;;4995188;28;20497;-65
2023/04/20 09:39:21;;;;;;;6.93;3.88;;;8.10;99.90;;;;;;4992685;28;20030;-64
2023/04/20 09:41:47;;;;;;;7.63;4.30;;;8.10;99.90;;;;;;4996005;28;20137;-63
2023/04/20 09:44:15;;;;;;;7.78;3.80;;;8.10;99.90;;;;;;4981947;28;20444;-64
2023/04/20 09:46:41;;;;;;;7.15;3.65;;;8.10;99.90;;;;;;4997709;28;20416;-66
2023/04/20 09:49:09;;;;;;;7.05;4.05;;;8.10;99.90;;;;;;4998702;28;20188;-64
2023/04/20 09:51:37;;;;;;;6.18;3.75;;;8.10;99.90;;;;;;4996973;28;20041;-64
2023/04/20 09:54:05;;;;;;;6.00;3.90;;;8.00;99.90;;;;;;4998076;28;20128;-63
2023/04/20 09:56:32;;;;;;;8.65;4.15;;;8.10;99.90;;;;;;4995941;28;20049;-63
2023/04/20 09:58:59;;;;;;;5.25;3.75;;;8.20;99.90;;;;;;4997076;28;20044;-62
2023/04/20 10:01:28;;;;;;;13.32;5.95;;;8.30;99.90;;;;;;4996750;28;20061;-64
2023/04/20 10:03:54;;;;;;;8.57;4.75;;;8.40;99.90;;;;;;4998339;28;20045;-63
2023/04/20 10:06:29;;;;;;;8.55;4.65;;;8.50;99.90;;;;;;4995105;28;20128;-63
2023/04/20 10:08:55;;;;;;;8.38;5.10;;;8.50;99.90;;;;;;4995893;28;20056;-62
2023/04/20 10:11:29;;;;;;;9.00;3.97;;;8.60;99.90;;;;;;5000045;28;20428;-62
2023/04/20 10:13:56;;;;;;;10.82;4.15;;;8.70;99.90;;;;;;5002124;28;20405;-62
2023/04/20 10:16:22;;;;;;;7.53;4.40;;;8.80;99.90;;;;;;5001567;28;20052;-61
2023/04/20 10:18:59;;;;;;;9.35;4.25;;;8.80;99.90;;;;;;4981455;28;20045;-62
2023/04/20 10:21:24;;;;;;;;;;;8.80;99.90;;;;;;5004589;28;20041;-62
2023/04/20 10:23:51;;;;;;;6.82;4.18;;;8.80;99.90;;;;;;5002486;28;19924;-63
2023/04/20 10:26:17;;;;;;;9.57;4.65;;;8.80;99.90;;;;;;5003546;28;20160;-62
2023/04/20 10:28:45;;;;;;;8.70;3.92;;;8.90;99.90;;;;;;5003935;28;20509;-61
2023/04/20 10:31:13;;;;;;;7.57;4.38;;;8.90;99.90;;;;;;5001431;28;20073;-61
2023/04/20 10:33:50;;;;;;;7.53;4.47;;;9.10;99.90;;;;;;5000853;28;20074;-62
2023/04/20 10:36:24;;;;;;;5.53;3.95;;;9.00;99.90;;;;;;4998181;28;20730;-63
2023/04/20 10:38:51;;;;;;;8.00;3.90;;;9.00;99.90;;;;;;5002514;28;20044;-62
2023/04/20 10:41:20;;;;;;;6.40;3.88;;;9.00;99.90;;;;;;5003941;28;20541;-61
2023/04/20 10:43:46;;;;;;;6.03;4.30;;;9.00;99.90;;;;;;5014294;28;20677;-62
2023/04/20 10:46:24;;;;;;;8.07;4.25;;;8.90;99.90;;;;;;5004396;28;20046;-63
2023/04/20 10:49:00;;;;;;;8.23;4.25;;;8.90;99.90;;;;;;5000809;28;20076;-64
2023/04/20 10:51:27;;;;;;;10.63;5.65;;;8.80;99.90;;;;;;5000430;28;20041;-61
2023/04/20 10:54:07;;;;;;;10.02;5.30;;;8.80;99.90;;;;;;4993302;28;20081;-62
2023/04/20 10:56:42;;;;;;;8.75;5.53;;;8.80;99.90;;;;;;5002972;28;20108;-64
2023/04/20 10:59:13;;;;;;;7.40;4.30;;;8.70;99.90;;;;;;5004042;28;20057;-61
2023/04/20 11:01:40;;;;;;;9.70;4.80;;;8.70;99.90;;;;;;5004217;28;20072;-61
2023/04/20 11:04:09;;;;;;;9.30;4.80;;;8.70;99.90;;;;;;4987372;28;20034;-61
2023/04/20 11:06:39;;;;;;;9.30;4.75;;;8.70;99.90;;;;;;5020901;28;20049;-64
2023/04/20 11:09:22;;;;;;;7.45;4.35;;;8.50;99.90;;;;;;5001182;28;20050;-62
2023/04/20 11:11:58;;;;;;;10.15;5.93;;;8.70;99.90;;;;;;5004067;28;20034;-62
2023/04/20 11:14:24;;;;;;;10.50;5.47;;;8.50;99.90;;;;;;4999233;28;20545;-62
2023/04/20 11:16:53;;;;;;;8.93;4.97;;;8.50;99.90;;;;;;4999928;28;20049;-63
2023/04/20 11:19:33;;;;;;;7.95;4.88;;;8.50;99.90;;;;;;5001601;28;20614;-62
2023/04/20 11:21:59;;;;;;;10.32;5.60;;;8.50;99.90;;;;;;5003788;28;20489;-63
2023/04/20 11:24:28;;;;;;;8.45;5.28;;;8.50;99.90;;;;;;4998475;28;20481;-61
2023/04/20 11:26:54;;;;;;;7.57;4.88;;;8.50;99.90;;;;;;4983860;28;20077;-64
2023/04/20 11:29:36;;;;;;;9.70;5.05;;;8.50;99.90;;;;;;5003365;28;20050;-62
2023/04/20 11:32:10;;;;;;;8.50;5.38;;;8.40;99.90;;;;;;5010006;28;21329;-62
2023/04/20 11:34:38;;;;;;;9.15;5.45;;;8.40;99.90;;;;;;5004163;28;20088;-61
2023/04/20 11:37:09;;;;;;;9.40;5.53;;;8.40;99.90;;;;;;5004811;28;20054;-63
2023/04/20 11:39:36;;;;;;;11.75;5.60;;;8.40;99.90;;;;;;5008201;28;20050;-60
2023/04/20 11:42:02;;;;;;;10.13;5.97;;;8.50;99.90;;;;;;5021069;28;20165;-61
2023/04/20 11:44:28;;;;;;;14.32;5.55;;;8.40;99.90;;;;;;5016621;28;20113;-60
2023/04/20 11:46:57;;;;;;;12.48;5.53;;;8.50;99.90;;;;;;5005946;28;20125;-61
2023/04/20 11:49:24;;;;;;;12.35;5.93;;;8.60;99.90;;;;;;5008079;28;20064;-64
2023/04/20 11:51:50;;;;;;;10.48;5.60;;;8.70;99.90;;;;;;5007434;28;20045;-62
2023/04/20 11:54:18;;;;;;;9.82;5.00;;;8.70;99.90;;;;;;5006855;28;20076;-59
2023/04/20 11:56:44;;;;;;;8.30;5.57;;;8.80;99.90;;;;;;5009620;28;20080;-61
2023/04/20 11:59:10;;;;;;;10.02;5.72;;;8.80;99.90;;;;;;5004142;28;21800;-61
2023/04/20 12:01:37;;;;;;;8.13;5.57;;;8.90;99.90;;;;;;5005855;28;20030;-61
2023/04/20 12:04:03;;;;;;;9.57;6.32;;;8.90;99.90;;;;;;5007562;28;20642;-64
2023/04/20 12:06:30;;;;;;;8.52;5.22;;;8.90;99.90;;;;;;5008808;28;20046;-61
2023/04/20 12:08:56;;;;;;;10.48;5.38;;;8.90;99.90;;;;;;5003733;28;22142;-61
2023/04/20 12:11:25;;;;;;;9.32;5.95;;;8.90;99.90;;;;;;5002553;28;20146;-61
2023/04/20 12:13:53;;;;;;;8.95;5.97;;;9.00;99.90;;;;;;5003813;28;20552;-60
2023/04/20 12:16:19;;;;;;;11.07;6.32;;;9.10;99.90;;;;;;5009160;28;20120;-62
2023/04/20 12:18:48;;;;;;;9.18;5.75;;;9.20;99.90;;;;;;5002069;28;20049;-64
2023/04/20 12:21:13;;;;;;;12.75;5.80;;;9.30;99.90;;;;;;5004105;28;20037;-62
2023/04/20 12:23:39;;;;;;;9.15;5.55;;;9.40;99.90;;;;;;5007524;28;20397;-61
2023/04/20 12:26:05;;;;;;;8.98;5.80;;;9.50;99.90;;;;;;5004537;28;20046;-61
2023/04/20 12:28:31;;;;;;;10.25;5.65;;;9.50;99.90;;;;;;5002063;28;20056;-60
2023/04/20 12:30:57;;;;;;;8.85;5.97;;;9.40;99.90;;;;;;5002678;28;20133;-60
2023/04/20 12:33:23;;;;;;;9.55;5.70;;;9.50;99.90;;;;;;4988635;28;20140;-63
2023/04/20 12:35:49;;;;;;;10.43;6.10;;;9.50;99.90;;;;;;5002971;28;20113;-61
2023/04/20 12:38:17;;;;;;;9.60;5.70;;;9.60;99.90;;;;;;4998780;28;20069;-60
2023/04/20 12:40:43;;;;;;;8.60;6.07;;;9.80;99.90;;;;;;5004432;28;20040;-61
2023/04/20 12:43:09;;;;;;;9.32;5.90;;;9.90;99.90;;;;;;5007685;28;20037;-58
2023/04/20 12:45:35;;;;;;;7.82;5.88;;;10.10;99.90;;;;;;5004103;28;20065;-59
2023/04/20 12:48:01;;;;;;;9.48;6.07;;;10.10;99.90;;;;;;5005026;28;20538;-64
2023/04/20 12:50:27;;;;;;;12.25;6.70;;;10.00;99.90;;;;;;5006482;28;20048;-61
2023/04/20 12:52:55;;;;;;;11.10;7.18;;;10.20;99.90;;;;;;5004545;28;20046;-61
2023/04/20 12:55:21;;;;;;;13.13;7.05;;;10.10;99.90;;;;;;5004718;28;20049;-61